Aérodrome :
LOGIN :

S'inscrire | Disclaimer

   EN    FR    IT 

 










Légende :    VFR   VFR Marginal   IFR   IFR Intensif   IFR Très Intensif
Visi : 
Plafond : 
>= 8 km
>= 3000ft
5 à 8 km
1000 à 3000 ft
1500m à 5 km
500 à 1000 ft
800 à 1500m
200 à 500 ft
< 800m
< 200 ft
Symboles :   Orages  Brouillard  Fortes neiges  Fortes précipitations  Vent > 20 kt
SIGMETs :   Divers  Orages  Givrage  Turbulence  Onde Orograph.  Cendres Volcan.







- Altitude de l'aérodrome : 144 ft
- Code IATA : PGF
- Voir les cartes d'approche


LFMP - Perpignan

DERNIER METAR :
  • 270330Z AUTO 32017KT 300V360 CAVOK 16/10 Q1013 BECMG 32020G35KT

METARs EXPIRÉS :
  • 270300Z AUTO 32018G28KT CAVOK 16/11 Q1013 NOSIG
  • 270230Z AUTO 32021G34KT CAVOK 17/11 Q1013
  • 270200Z AUTO 32021KT CAVOK 17/11 Q1013
  • 270130Z AUTO 32021G32KT CAVOK 17/11 Q1013
  • 270100Z AUTO 32019KT CAVOK 18/11 Q1013

TAF TAF LFMP
Valide du 27 à 03h jusqu'au 28 à 03h UTC


270200Z 2703/2803 32020G35KT CAVOK
TEMPO 2706/2711 32025G45KT
TEMPO 2717/2723 32015G25KT
ATIS : +33 4 68 63 75 12
Pas de NOTAMs connus pour ce terrain.



MET'MAP, la Météo Aéronautique d'un coup d'oeil ! - Copyright ORBIFLY Décembre 2007 - Disclaimer

ORBIFLY MET'MAP TEAM :

Programmation & Développement : Alexandra Zaïnal
Conception & Développement : Baudouin d'Aumeries
Co-Programmation & Développement : Marc-Olivier Méhu
Soutien technique & logistique : Manuel Goepfert

Contact : metmap@orbifly.com




SOURCES & CREDITS :

   NOAA